Time;durP1;ratioP1;P1;durP2;ratioP2;P2;SDS_P1;SDS_P2;PMS_P1;PMS_P2;Temp;Humidity;BMP_temperature;BMP_pressure;BME280_temperature;BME280_humidity;BME280_pressure;Samples;Min_cycle;Max_cycle;Signal;HPM_P1;HPM_P2
2021/05/24 00:00:45;;;;;;;2.50;1.53;;;12.90;94.70;;;;;;5069772;28;20170;-73
2021/05/24 00:03:11;;;;;;;1.77;1.47;;;13.00;95.10;;;;;;5069651;28;20168;-73
2021/05/24 00:05:37;;;;;;;1.50;1.40;;;12.90;95.10;;;;;;5069367;28;20431;-73
2021/05/24 00:08:03;;;;;;;1.80;1.40;;;12.90;95.20;;;;;;5069390;28;20424;-73
2021/05/24 00:10:33;;;;;;;1.70;1.60;;;12.90;95.30;;;;;;5060237;28;20440;-73
2021/05/24 00:13:02;;;;;;;2.70;1.10;;;12.90;95.60;;;;;;5057042;28;20405;-72
2021/05/24 00:15:40;;;;;;;3.47;1.53;;;12.90;95.80;;;;;;5056440;28;20421;-74
2021/05/24 00:18:06;;;;;;;1.90;1.77;;;12.70;95.70;;;;;;5056176;28;20459;-72
2021/05/24 00:20:37;;;;;;;2.50;1.70;;;12.70;96.40;;;;;;5056160;28;20409;-72
2021/05/24 00:23:03;;;;;;;1.50;1.30;;;12.80;96.70;;;;;;5055810;28;20487;-72
2021/05/24 00:25:29;;;;;;;1.70;1.60;;;12.80;96.50;;;;;;5055934;28;20431;-72
2021/05/24 00:27:55;;;;;;;3.33;2.00;;;12.80;96.80;;;;;;5065574;28;20492;-72
2021/05/24 00:30:21;;;;;;;1.37;1.27;;;12.80;97.00;;;;;;5075137;28;20401;-73
2021/05/24 00:32:47;;;;;;;3.50;1.90;;;12.80;97.20;;;;;;5074462;28;20208;-72
2021/05/24 00:35:13;;;;;;;2.43;1.60;;;12.80;97.10;;;;;;5073308;28;20456;-72
2021/05/24 00:37:39;;;;;;;4.87;1.40;;;12.80;97.40;;;;;;5071524;28;20246;-71
2021/05/24 00:40:07;;;;;;;1.30;1.20;;;12.80;97.40;;;;;;5067330;28;20461;-72
2021/05/24 00:42:34;;;;;;;2.73;1.43;;;12.70;97.60;;;;;;5074012;28;20181;-73
2021/05/24 00:45:00;;;;;;;2.00;1.40;;;12.80;97.60;;;;;;5073119;28;20447;-73
2021/05/24 00:47:25;;;;;;;2.67;1.50;;;12.70;98.00;;;;;;5065860;28;20886;-72
2021/05/24 00:49:51;;;;;;;2.33;1.43;;;12.70;98.10;;;;;;5055942;28;20435;-73
2021/05/24 00:52:16;;;;;;;2.07;1.50;;;12.70;98.20;;;;;;5055405;28;20297;-72
2021/05/24 00:54:42;;;;;;;1.73;1.63;;;12.80;98.30;;;;;;5055113;28;20252;-72
2021/05/24 00:57:08;;;;;;;2.07;1.50;;;12.70;98.30;;;;;;5055650;28;20531;-72
2021/05/24 00:59:36;;;;;;;1.60;1.40;;;12.70;98.60;;;;;;5054975;28;20202;-73
2021/05/24 01:02:02;;;;;;;1.23;1.13;;;12.70;98.70;;;;;;5055310;28;20918;-73
2021/05/24 01:04:28;;;;;;;1.40;1.30;;;12.80;98.80;;;;;;5055405;28;20421;-72
2021/05/24 01:06:55;;;;;;;3.27;1.67;;;12.80;99.00;;;;;;5055316;28;20427;-72
2021/05/24 01:09:21;;;;;;;2.53;1.70;;;12.70;98.90;;;;;;5055970;28;20228;-73
2021/05/24 01:11:51;;;;;;;1.77;1.67;;;12.80;99.10;;;;;;5060507;28;20421;-73
2021/05/24 01:14:17;;;;;;;2.30;1.27;;;12.80;99.30;;;;;;5061171;28;20721;-73
2021/05/24 01:16:45;;;;;;;1.70;1.60;;;12.90;99.20;;;;;;5067209;28;20474;-72
2021/05/24 01:19:11;;;;;;;2.40;1.67;;;12.90;99.20;;;;;;5062946;28;20456;-73
2021/05/24 01:21:37;;;;;;;1.53;1.40;;;13.00;99.30;;;;;;5061866;28;20417;-72
2021/05/24 01:24:03;;;;;;;1.47;1.37;;;13.00;99.20;;;;;;5066537;28;20610;-73
2021/05/24 01:26:28;;;;;;;1.60;1.50;;;13.00;99.20;;;;;;5065971;28;20249;-73
2021/05/24 01:28:54;;;;;;;2.43;1.57;;;12.90;99.10;;;;;;5062818;28;20170;-73
2021/05/24 01:31:20;;;;;;;1.40;1.30;;;12.90;99.20;;;;;;5060672;28;20178;-73
2021/05/24 01:33:46;;;;;;;1.73;1.60;;;12.90;99.40;;;;;;5058463;28;20487;-72
2021/05/24 01:36:12;;;;;;;2.00;1.63;;;13.00;99.40;;;;;;5062352;28;20472;-72
2021/05/24 01:38:41;;;;;;;2.27;1.50;;;13.00;99.40;;;;;;5067659;28;20212;-72
2021/05/24 01:41:09;;;;;;;2.70;2.00;;;13.00;99.50;;;;;;5069363;28;20404;-71
2021/05/24 01:43:36;;;;;;;1.33;1.23;;;13.00;99.60;;;;;;5068292;28;20424;-71
2021/05/24 01:46:02;;;;;;;2.30;1.43;;;13.00;99.60;;;;;;5069041;28;20421;-73
2021/05/24 01:48:28;;;;;;;1.57;1.47;;;13.00;99.40;;;;;;5061790;28;20784;-73
2021/05/24 01:50:54;;;;;;;1.40;1.23;;;13.00;99.40;;;;;;5057453;28;20408;-72
2021/05/24 01:53:21;;;;;;;1.50;1.40;;;13.00;99.50;;;;;;5054174;28;20447;-72
2021/05/24 01:55:47;;;;;;;3.07;1.47;;;13.00;99.90;;;;;;5055238;28;20197;-72
2021/05/24 01:58:13;;;;;;;1.83;1.53;;;13.00;99.60;;;;;;5054639;28;20460;-72
2021/05/24 02:00:39;;;;;;;2.28;1.38;;;13.00;99.70;;;;;;5054573;28;20403;-72
2021/05/24 02:03:07;;;;;;;1.40;1.20;;;13.00;99.70;;;;;;5057215;28;20313;-72
2021/05/24 02:05:33;;;;;;;1.57;1.30;;;13.00;99.80;;;;;;5055824;28;20431;-73
2021/05/24 02:07:59;;;;;;;2.60;1.57;;;12.90;99.80;;;;;;5054799;28;20412;-73
2021/05/24 02:10:33;;;;;;;1.40;1.30;;;12.90;99.90;;;;;;5054217;28;20230;-73
2021/05/24 02:13:00;;;;;;;1.33;1.23;;;12.90;99.90;;;;;;5053941;28;20415;-74
2021/05/24 02:15:29;;;;;;;3.23;1.57;;;12.90;99.90;;;;;;5053815;28;20444;-73
2021/05/24 02:17:55;;;;;;;2.40;1.40;;;12.90;99.90;;;;;;5054257;28;20857;-73
2021/05/24 02:20:24;;;;;;;3.83;1.43;;;13.00;99.90;;;;;;5056061;28;20416;-73
2021/05/24 02:22:54;;;;;;;1.60;1.10;;;12.90;99.90;;;;;;5054121;28;20182;-74
2021/05/24 02:25:20;;;;;;;1.27;1.17;;;12.90;99.90;;;;;;5053956;28;20432;-73
2021/05/24 02:27:46;;;;;;;1.10;1.00;;;12.80;99.90;;;;;;5054651;28;20401;-73
2021/05/24 02:30:14;;;;;;;1.50;1.40;;;12.80;99.90;;;;;;5053966;28;20405;-73
2021/05/24 02:32:40;;;;;;;1.57;1.17;;;12.80;99.90;;;;;;5053588;28;20170;-73
2021/05/24 02:35:09;;;;;;;2.20;1.67;;;12.80;99.90;;;;;;5053656;28;20486;-73
2021/05/24 02:37:35;;;;;;;1.30;1.20;;;12.80;99.90;;;;;;5053457;28;20180;-73
2021/05/24 02:40:00;;;;;;;1.30;1.20;;;12.80;99.90;;;;;;5053784;28;20428;-73
2021/05/24 02:42:26;;;;;;;1.47;1.30;;;12.80;99.90;;;;;;5053650;28;20170;-74
2021/05/24 02:44:51;;;;;;;1.30;1.20;;;12.70;99.90;;;;;;5053708;28;20550;-73
2021/05/24 02:47:17;;;;;;;2.47;1.37;;;12.70;99.90;;;;;;5053172;28;20699;-74
2021/05/24 02:49:45;;;;;;;1.23;1.20;;;12.70;99.90;;;;;;5054012;28;20174;-74
2021/05/24 02:52:12;;;;;;;1.10;0.97;;;12.60;99.90;;;;;;5054341;28;20587;-74
2021/05/24 02:54:38;;;;;;;1.40;1.20;;;12.50;99.90;;;;;;5054755;28;20511;-74
2021/05/24 02:57:04;;;;;;;1.43;1.20;;;12.50;99.90;;;;;;5054288;28;20444;-74
2021/05/24 02:59:29;;;;;;;1.40;1.30;;;12.40;99.90;;;;;;5054911;28;20470;-74
2021/05/24 03:01:55;;;;;;;1.27;1.20;;;12.40;99.90;;;;;;5054189;28;20529;-74
2021/05/24 03:04:27;;;;;;;1.43;1.10;;;12.30;99.90;;;;;;5053153;28;20212;-74
2021/05/24 03:06:53;;;;;;;2.20;1.30;;;12.40;99.90;;;;;;5053324;28;20247;-74
2021/05/24 03:09:19;;;;;;;2.53;1.00;;;12.30;99.90;;;;;;5053147;28;20428;-74
2021/05/24 03:11:45;;;;;;;2.10;1.13;;;12.30;99.90;;;;;;5053655;28;20409;-74
2021/05/24 03:14:10;;;;;;;2.67;1.20;;;12.20;99.90;;;;;;5053149;28;20177;-74
2021/05/24 03:16:37;;;;;;;1.00;1.00;;;12.20;99.90;;;;;;5053110;28;20244;-74
2021/05/24 03:19:03;;;;;;;2.27;1.33;;;12.10;99.90;;;;;;5052857;28;20197;-74
2021/05/24 03:21:29;;;;;;;1.37;1.27;;;12.20;99.90;;;;;;5053229;28;20530;-74
2021/05/24 03:23:54;;;;;;;2.00;1.17;;;12.10;99.90;;;;;;5051990;28;20445;-73
2021/05/24 03:26:20;;;;;;;1.90;1.20;;;12.10;99.90;;;;;;5053254;28;20260;-73
2021/05/24 03:28:46;;;;;;;2.17;1.17;;;12.10;99.90;;;;;;5051966;28;20256;-73
2021/05/24 03:31:12;;;;;;;1.37;1.10;;;12.10;99.90;;;;;;5062613;28;20202;-74
2021/05/24 03:33:38;;;;;;;1.60;1.25;;;12.20;99.90;;;;;;5076505;28;20439;-74
2021/05/24 03:36:05;;;;;;;2.80;1.30;;;12.20;99.90;;;;;;5055748;28;20259;-74
2021/05/24 03:38:31;;;;;;;1.77;1.47;;;12.20;99.90;;;;;;5052780;28;20480;-74
2021/05/24 03:40:56;;;;;;;2.17;1.40;;;12.20;99.90;;;;;;5052361;28;20458;-74
2021/05/24 03:43:22;;;;;;;1.90;1.20;;;12.20;99.90;;;;;;5051946;28;20939;-74
2021/05/24 03:45:48;;;;;;;1.87;1.00;;;12.20;99.90;;;;;;5055339;28;20201;-73
2021/05/24 03:48:14;;;;;;;1.63;1.23;;;12.30;99.90;;;;;;5056753;28;20158;-74
2021/05/24 03:50:39;;;;;;;1.63;1.53;;;12.30;99.90;;;;;;5056844;28;20500;-74
2021/05/24 03:53:05;;;;;;;1.27;1.23;;;12.30;99.90;;;;;;5056493;28;20186;-74
2021/05/24 03:55:30;;;;;;;1.93;1.20;;;12.30;99.90;;;;;;5059970;28;20190;-74
2021/05/24 03:57:56;;;;;;;1.53;1.43;;;12.30;99.90;;;;;;5080488;28;20208;-74
2021/05/24 04:00:22;;;;;;;2.87;1.40;;;12.40;99.90;;;;;;5060706;28;20185;-74
2021/05/24 04:02:48;;;;;;;1.50;1.30;;;12.40;99.90;;;;;;5043642;28;20216;-74
2021/05/24 04:05:21;;;;;;;1.80;1.13;;;12.40;99.90;;;;;;5056213;28;20934;-74
2021/05/24 04:07:53;;;;;;;1.37;1.07;;;12.40;99.90;;;;;;5056456;28;20155;-74
2021/05/24 04:10:21;;;;;;;1.00;1.00;;;12.40;99.90;;;;;;5056686;28;20859;-74
2021/05/24 04:12:47;;;;;;;1.30;1.20;;;12.50;99.90;;;;;;5055659;28;20423;-74
2021/05/24 04:15:15;;;;;;;2.60;1.30;;;12.50;99.90;;;;;;5054783;28;20539;-74
2021/05/24 04:17:42;;;;;;;1.60;0.97;;;12.50;99.90;;;;;;5056799;28;20154;-74
2021/05/24 04:20:11;;;;;;;1.70;1.10;;;12.60;99.90;;;;;;5056047;28;20758;-74
2021/05/24 04:22:38;;;;;;;1.77;1.20;;;12.60;99.90;;;;;;5054661;28;20882;-74
2021/05/24 04:25:04;;;;;;;1.93;1.10;;;12.60;99.90;;;;;;5056019;28;20257;-75
2021/05/24 04:27:29;;;;;;;1.93;1.40;;;12.70;99.90;;;;;;5056428;28;20448;-74
2021/05/24 04:29:55;;;;;;;1.40;1.30;;;12.70;99.90;;;;;;5056175;28;20423;-74
2021/05/24 04:32:20;;;;;;;1.27;1.17;;;12.80;99.90;;;;;;5055421;28;20174;-75
2021/05/24 04:34:46;;;;;;;3.30;1.00;;;12.80;99.90;;;;;;5055649;28;20284;-74
2021/05/24 04:37:11;;;;;;;1.23;1.03;;;12.80;99.90;;;;;;5056351;28;20221;-75
2021/05/24 04:39:41;;;;;;;1.80;1.00;;;12.90;99.90;;;;;;5055818;28;20205;-74
2021/05/24 04:42:07;;;;;;;1.37;1.00;;;12.90;99.90;;;;;;5056062;28;20551;-74
2021/05/24 04:44:33;;;;;;;1.20;1.10;;;12.90;99.90;;;;;;5054966;28;20440;-74
2021/05/24 04:46:58;;;;;;;5.77;1.20;;;12.90;99.90;;;;;;5056316;28;20178;-73
2021/05/24 04:49:24;;;;;;;2.50;1.00;;;13.00;99.90;;;;;;5055574;28;20182;-72
2021/05/24 04:51:49;;;;;;;1.30;1.00;;;13.00;99.80;;;;;;5054822;28;20181;-72
2021/05/24 04:54:15;;;;;;;1.37;1.20;;;13.00;99.80;;;;;;5054808;28;20198;-73
2021/05/24 04:56:40;;;;;;;2.10;1.17;;;13.10;99.60;;;;;;5054530;28;20182;-74
2021/05/24 04:59:06;;;;;;;2.30;1.20;;;13.10;99.20;;;;;;5055454;28;20232;-74
2021/05/24 05:01:31;;;;;;;1.97;0.90;;;13.20;99.10;;;;;;5055376;28;20166;-74
2021/05/24 05:03:57;;;;;;;1.37;1.27;;;13.30;99.00;;;;;;5054706;28;20170;-74
2021/05/24 05:06:23;;;;;;;1.30;1.10;;;13.30;98.80;;;;;;5055333;28;20666;-74
2021/05/24 05:08:48;;;;;;;1.57;0.90;;;13.40;98.60;;;;;;5053880;28;20166;-73
2021/05/24 05:11:14;;;;;;;2.00;1.10;;;13.40;98.70;;;;;;5054062;28;20419;-73
2021/05/24 05:13:43;;;;;;;1.33;1.20;;;13.40;98.60;;;;;;5055365;28;20170;-73
2021/05/24 05:16:10;;;;;;;2.63;1.47;;;13.50;98.50;;;;;;5048169;28;20585;-73
2021/05/24 05:18:36;;;;;;;1.40;1.13;;;13.50;98.20;;;;;;5037799;28;20988;-73
2021/05/24 05:21:01;;;;;;;2.13;1.10;;;13.60;98.10;;;;;;5034708;28;20406;-74
2021/05/24 05:23:27;;;;;;;2.70;1.10;;;13.60;97.80;;;;;;5042952;28;20201;-74
2021/05/24 05:25:53;;;;;;;2.13;1.07;;;13.70;97.60;;;;;;5054643;28;20194;-74
2021/05/24 05:28:21;;;;;;;1.10;1.00;;;13.70;97.40;;;;;;5053396;28;20167;-74
2021/05/24 05:30:47;;;;;;;2.10;1.47;;;13.70;97.30;;;;;;5042292;28;20209;-74
2021/05/24 05:33:12;;;;;;;1.93;1.10;;;13.70;97.30;;;;;;5054623;28;20415;-74
2021/05/24 05:35:38;;;;;;;1.80;1.30;;;13.70;97.40;;;;;;5054507;28;20999;-73
2021/05/24 05:38:03;;;;;;;1.30;1.20;;;13.80;97.10;;;;;;5052628;28;20636;-74
2021/05/24 05:40:31;;;;;;;1.70;1.10;;;13.80;97.10;;;;;;5054392;28;20206;-74
2021/05/24 05:42:57;;;;;;;2.03;1.10;;;13.80;97.10;;;;;;5054061;28;20272;-74
2021/05/24 05:45:23;;;;;;;1.60;1.00;;;13.80;97.30;;;;;;5054413;28;20516;-75
2021/05/24 05:47:48;;;;;;;2.40;1.70;;;13.80;97.00;;;;;;5054434;28;20405;-74
2021/05/24 05:50:14;;;;;;;3.77;1.27;;;13.80;97.10;;;;;;5054062;28;20171;-74
2021/05/24 05:52:40;;;;;;;2.87;1.50;;;13.80;97.10;;;;;;5053900;28;20225;-75
2021/05/24 05:55:08;;;;;;;1.10;0.93;;;13.80;97.00;;;;;;5053071;28;20440;-75
2021/05/24 05:57:34;;;;;;;1.67;1.00;;;13.80;96.80;;;;;;5054065;28;20555;-74
2021/05/24 05:59:59;;;;;;;2.13;1.10;;;13.80;96.70;;;;;;5052555;28;20457;-74
2021/05/24 06:02:25;;;;;;;1.80;1.40;;;13.80;96.70;;;;;;5054127;28;20420;-75
2021/05/24 06:04:50;;;;;;;2.03;1.00;;;13.80;96.70;;;;;;5054219;28;20252;-73
2021/05/24 06:07:16;;;;;;;1.40;1.00;;;13.80;96.70;;;;;;5053919;28;20174;-73
2021/05/24 06:09:42;;;;;;;1.47;1.10;;;13.80;96.70;;;;;;5054382;28;20170;-74
2021/05/24 06:12:08;;;;;;;1.57;1.10;;;13.80;96.70;;;;;;5048417;28;20807;-74
2021/05/24 06:14:34;;;;;;;2.10;1.90;;;13.90;96.70;;;;;;5051741;28;20971;-75
2021/05/24 06:17:00;;;;;;;1.10;0.90;;;13.90;96.50;;;;;;5053018;28;20424;-74
2021/05/24 06:19:25;;;;;;;1.37;1.00;;;14.00;96.60;;;;;;5053658;28;20612;-74
2021/05/24 06:21:51;;;;;;;2.33;1.00;;;14.00;96.30;;;;;;5052538;28;20632;-74
2021/05/24 06:24:16;;;;;;;1.77;0.90;;;14.00;96.30;;;;;;5053405;28;20624;-74
2021/05/24 06:26:42;;;;;;;1.13;1.07;;;14.10;96.50;;;;;;5054016;28;20195;-74
2021/05/24 06:29:08;;;;;;;3.10;1.30;;;14.10;96.40;;;;;;5052298;28;20190;-74
2021/05/24 06:31:33;;;;;;;1.47;1.00;;;14.10;96.20;;;;;;5053694;28;20166;-74
2021/05/24 06:33:59;;;;;;;1.60;1.00;;;14.20;96.20;;;;;;5053358;28;20718;-75
2021/05/24 06:36:25;;;;;;;2.17;1.17;;;14.20;95.70;;;;;;5053913;28;20425;-75
2021/05/24 06:38:51;;;;;;;2.13;1.37;;;14.30;95.50;;;;;;5042414;28;20222;-75
2021/05/24 06:41:16;;;;;;;1.57;1.10;;;14.30;95.60;;;;;;5051832;28;20221;-75
2021/05/24 06:43:43;;;;;;;2.80;1.03;;;14.40;95.40;;;;;;5043856;28;20197;-74
2021/05/24 06:46:08;;;;;;;3.43;1.10;;;14.50;95.40;;;;;;5043609;28;20445;-74
2021/05/24 06:48:34;;;;;;;2.10;1.00;;;14.50;94.90;;;;;;5045489;28;20445;-73
2021/05/24 06:50:59;;;;;;;1.30;1.13;;;14.60;94.90;;;;;;5045892;28;20181;-74
2021/05/24 06:53:25;;;;;;;1.60;1.10;;;14.70;94.40;;;;;;5041695;28;20561;-75
2021/05/24 06:55:51;;;;;;;3.53;1.57;;;14.80;94.30;;;;;;5048712;28;20281;-73
2021/05/24 06:58:16;;;;;;;2.97;0.90;;;14.90;94.30;;;;;;5046518;28;20708;-76
2021/05/24 07:00:42;;;;;;;1.93;1.10;;;15.00;95.10;;;;;;5054987;28;20189;-75
2021/05/24 07:03:07;;;;;;;2.10;1.20;;;15.10;95.10;;;;;;5054422;28;20180;-75
2021/05/24 07:05:33;;;;;;;2.50;1.30;;;15.20;94.50;;;;;;5053981;28;20224;-74
2021/05/24 07:07:59;;;;;;;3.17;1.60;;;15.30;95.60;;;;;;5056270;28;20593;-74
2021/05/24 07:10:25;;;;;;;9.77;1.73;;;15.50;96.40;;;;;;5055020;28;20159;-75
2021/05/24 07:12:51;;;;;;;6.73;0.97;;;15.80;95.70;;;;;;5053666;28;20431;-74
2021/05/24 07:15:16;;;;;;;4.73;1.40;;;15.90;94.90;;;;;;5057869;28;20193;-72
2021/05/24 07:17:42;;;;;;;1.60;0.93;;;16.20;95.00;;;;;;5055328;28;20534;-75
2021/05/24 07:20:08;;;;;;;2.40;1.10;;;16.30;93.60;;;;;;5054295;28;20181;-73
2021/05/24 07:22:35;;;;;;;5.00;1.50;;;16.30;92.50;;;;;;5056241;28;20424;-70
2021/05/24 07:25:01;;;;;;;1.40;1.20;;;16.30;93.20;;;;;;5050308;28;20440;-69
2021/05/24 07:27:27;;;;;;;3.13;1.40;;;16.30;93.60;;;;;;5046736;28;20496;-68
2021/05/24 07:29:52;;;;;;;7.37;1.20;;;16.40;93.80;;;;;;5057250;28;20158;-69
2021/05/24 07:32:18;;;;;;;10.50;2.00;;;16.60;93.80;;;;;;5056904;28;20408;-68
2021/05/24 07:34:43;;;;;;;2.50;1.23;;;16.80;93.60;;;;;;5056707;28;20194;-69
2021/05/24 07:37:09;;;;;;;3.70;1.50;;;17.00;92.90;;;;;;5056521;28;20174;-69
2021/05/24 07:39:36;;;;;;;3.77;1.80;;;17.10;92.40;;;;;;5055236;28;20190;-68
2021/05/24 07:42:02;;;;;;;1.77;1.20;;;17.20;92.20;;;;;;5056390;28;20651;-69
2021/05/24 07:44:29;;;;;;;3.13;1.73;;;17.40;92.20;;;;;;5056352;28;20467;-69
2021/05/24 07:46:56;;;;;;;2.43;1.30;;;17.60;91.60;;;;;;5056599;28;20482;-69
2021/05/24 07:49:22;;;;;;;3.03;1.63;;;17.70;91.00;;;;;;5056430;28;20440;-70
2021/05/24 07:51:49;;;;;;;1.73;1.10;;;17.80;90.80;;;;;;5055961;28;20485;-69
2021/05/24 07:54:14;;;;;;;1.47;1.10;;;17.80;90.90;;;;;;5056553;28;20174;-68
2021/05/24 07:56:40;;;;;;;2.60;1.17;;;17.90;90.80;;;;;;5056432;28;20417;-69
2021/05/24 07:59:06;;;;;;;1.37;1.23;;;18.00;90.60;;;;;;5054756;28;20456;-70
2021/05/24 08:01:31;;;;;;;2.53;1.20;;;18.10;91.00;;;;;;5054800;28;20174;-70
2021/05/24 08:03:57;;;;;;;1.67;1.20;;;18.20;90.50;;;;;;5054259;28;20647;-69
2021/05/24 08:06:22;;;;;;;2.67;1.20;;;18.30;90.40;;;;;;5043845;28;20678;-69
2021/05/24 08:08:48;;;;;;;2.40;1.20;;;18.30;89.80;;;;;;5056341;28;20179;-70
2021/05/24 08:11:15;;;;;;;1.83;1.20;;;18.40;90.00;;;;;;5055857;28;20182;-70
2021/05/24 08:13:41;;;;;;;4.20;1.27;;;18.50;89.90;;;;;;5056055;28;20593;-70
2021/05/24 08:16:07;;;;;;;2.93;1.10;;;18.60;88.90;;;;;;5054587;28;20489;-69
2021/05/24 08:18:33;;;;;;;3.30;1.38;;;18.60;88.40;;;;;;5055298;28;20467;-70
2021/05/24 08:20:58;;;;;;;4.77;1.30;;;18.70;88.30;;;;;;5055890;28;20198;-73
2021/05/24 08:23:24;;;;;;;2.20;1.10;;;18.60;87.80;;;;;;5054869;28;20226;-69
2021/05/24 08:25:49;;;;;;;2.90;1.10;;;18.70;88.10;;;;;;5055029;28;20186;-70
2021/05/24 08:28:16;;;;;;;2.20;1.00;;;19.00;87.60;;;;;;5047417;28;20207;-70
2021/05/24 08:30:42;;;;;;;2.63;1.10;;;19.10;86.70;;;;;;5055603;28;20188;-72
2021/05/24 08:33:08;;;;;;;1.57;0.93;;;19.20;85.80;;;;;;5052416;28;20424;-73
2021/05/24 08:35:34;;;;;;;2.10;1.20;;;19.30;85.20;;;;;;5054141;28;20945;-72
2021/05/24 08:38:00;;;;;;;2.43;1.37;;;19.40;84.90;;;;;;5037097;28;20256;-73
2021/05/24 08:40:26;;;;;;;4.23;1.13;;;19.20;84.00;;;;;;5051075;28;20918;-75
2021/05/24 08:42:55;;;;;;;1.60;1.30;;;19.30;83.90;;;;;;5037434;28;20659;-75
2021/05/24 08:45:21;;;;;;;1.20;1.10;;;19.20;82.90;;;;;;5034612;28;20421;-76
2021/05/24 08:47:48;;;;;;;1.23;1.00;;;19.20;83.40;;;;;;5035640;28;20402;-76
2021/05/24 08:50:15;;;;;;;2.27;1.00;;;19.10;83.20;;;;;;5036294;28;20405;-77
2021/05/24 08:52:41;;;;;;;3.33;1.53;;;19.00;83.50;;;;;;5055684;28;20444;-77
2021/05/24 08:55:09;;;;;;;1.50;1.20;;;18.60;83.70;;;;;;5056049;28;20444;-75
2021/05/24 08:57:39;;;;;;;1.47;1.00;;;18.60;84.10;;;;;;5055897;28;20423;-75
2021/05/24 09:00:09;;;;;;;4.50;1.30;;;18.40;83.10;;;;;;5055229;28;20455;-75
2021/05/24 09:02:44;;;;;;;1.80;1.10;;;18.30;83.60;;;;;;5055062;28;20432;-75
2021/05/24 09:05:10;;;;;;;1.87;1.20;;;18.10;84.00;;;;;;5054092;28;20789;-75
2021/05/24 09:07:52;;;;;;;1.63;1.20;;;18.00;84.60;;;;;;5055988;28;20408;-75
2021/05/24 09:10:20;;;;;;;1.80;0.90;;;17.90;84.80;;;;;;5054408;28;20599;-75
2021/05/24 09:12:46;;;;;;;2.10;1.13;;;17.80;84.80;;;;;;5055660;28;20425;-75
2021/05/24 09:15:14;;;;;;;2.60;1.50;;;17.80;84.80;;;;;;5055466;28;20991;-75
2021/05/24 09:17:48;;;;;;;1.50;1.40;;;17.80;84.60;;;;;;5055645;28;20555;-75
2021/05/24 09:20:19;;;;;;;5.30;1.30;;;17.80;85.00;;;;;;5056006;28;20734;-75
2021/05/24 09:23:03;;;;;;;0.97;0.93;;;17.80;85.30;;;;;;5055817;28;20417;-75
2021/05/24 09:26:02;;;;;;;1.93;1.30;;;17.70;85.60;;;;;;5055209;28;20421;-75
2021/05/24 09:28:44;;;;;;;2.33;1.00;;;17.60;85.70;;;;;;5056396;28;20416;-76
2021/05/24 09:31:25;;;;;;;2.37;1.63;;;17.70;86.00;;;;;;5055416;28;20409;-76
2021/05/24 09:34:00;;;;;;;2.30;1.37;;;17.70;86.40;;;;;;5054728;28;20785;-77
2021/05/24 09:36:29;;;;;;;1.37;1.27;;;17.60;86.10;;;;;;5055316;28;20507;-77
2021/05/24 09:39:10;;;;;;;1.47;1.00;;;17.60;86.30;;;;;;5054641;28;20452;-77
2021/05/24 09:41:45;;;;;;;3.77;1.40;;;17.50;86.70;;;;;;5054216;28;20953;-76
2021/05/24 09:44:25;;;;;;;3.03;1.40;;;17.60;87.10;;;;;;5053706;28;20448;-75
2021/05/24 09:46:51;;;;;;;1.67;1.33;;;17.60;87.30;;;;;;5054567;28;20902;-76
2021/05/24 09:49:17;;;;;;;3.50;1.37;;;17.70;87.70;;;;;;5055119;28;20424;-75
2021/05/24 09:51:45;;;;;;;2.43;1.00;;;17.80;87.20;;;;;;5054430;28;20174;-76
2021/05/24 09:54:13;;;;;;;1.03;1.03;;;17.90;87.30;;;;;;5054457;28;20535;-76
2021/05/24 09:56:41;;;;;;;1.53;1.10;;;17.80;87.00;;;;;;5054668;28;20409;-76
2021/05/24 09:59:08;;;;;;;2.20;1.20;;;17.90;87.50;;;;;;5054126;28;20506;-75
2021/05/24 10:01:40;;;;;;;1.90;1.30;;;18.00;87.10;;;;;;5054851;28;20791;-76
2021/05/24 10:04:11;;;;;;;1.97;1.10;;;18.20;87.10;;;;;;5056200;28;20845;-74
2021/05/24 10:06:38;;;;;;;3.00;1.17;;;18.50;86.80;;;;;;5060795;28;20421;-74
2021/05/24 10:09:05;;;;;;;2.30;1.37;;;18.60;86.20;;;;;;5061349;28;20889;-76
2021/05/24 10:11:31;;;;;;;1.17;0.90;;;18.80;85.20;;;;;;5054266;28;20412;-76
2021/05/24 10:13:57;;;;;;;1.30;1.10;;;18.80;84.40;;;;;;5052896;28;20428;-75
2021/05/24 10:16:27;;;;;;;2.77;1.87;;;18.90;84.00;;;;;;5054036;28;20959;-75
2021/05/24 10:18:52;;;;;;;2.73;1.40;;;19.00;83.50;;;;;;5054053;28;20530;-75
2021/05/24 10:21:18;;;;;;;2.60;1.20;;;18.80;82.80;;;;;;5053934;28;20861;-71
2021/05/24 10:23:44;;;;;;;2.90;1.50;;;18.60;84.80;;;;;;5042091;28;20437;-73
2021/05/24 10:26:12;;;;;;;2.90;1.53;;;18.60;86.50;;;;;;5038297;28;20198;-72
2021/05/24 10:28:38;;;;;;;2.90;1.40;;;18.60;86.90;;;;;;5034084;28;20173;-72
2021/05/24 10:31:15;;;;;;;1.80;1.10;;;18.40;87.90;;;;;;5042278;28;20440;-70
2021/05/24 10:33:42;;;;;;;3.47;1.10;;;18.50;86.90;;;;;;5053051;28;20447;-72
2021/05/24 10:36:15;;;;;;;2.87;1.30;;;18.00;83.90;;;;;;5038842;28;20487;-72
2021/05/24 10:38:41;;;;;;;2.10;1.20;;;18.00;87.10;;;;;;5037567;28;20456;-71
2021/05/24 10:41:09;;;;;;;2.43;1.40;;;17.90;88.00;;;;;;5035726;28;20430;-71
2021/05/24 10:43:42;;;;;;;1.47;1.37;;;17.70;90.00;;;;;;5033716;28;20171;-72
2021/05/24 10:46:37;;;;;;;4.13;1.57;;;17.50;90.80;;;;;;5047419;28;20444;-72
2021/05/24 10:49:05;;;;;;;1.93;1.00;;;17.30;91.50;;;;;;5051646;28;20543;-73
2021/05/24 10:52:04;;;;;;;2.63;1.30;;;17.20;92.20;;;;;;5051320;28;20463;-71
2021/05/24 10:54:34;;;;;;;3.23;2.03;;;17.20;92.60;;;;;;5049360;28;20436;-70
2021/05/24 10:57:00;;;;;;;2.07;1.37;;;17.30;92.70;;;;;;5051062;28;20439;-70
2021/05/24 10:59:44;;;;;;;5.93;1.43;;;17.30;92.90;;;;;;5051465;28;20845;-70
2021/05/24 11:02:22;;;;;;;1.67;1.10;;;17.30;93.50;;;;;;5035004;28;20184;-72
2021/05/24 11:05:17;;;;;;;2.90;1.57;;;17.00;93.90;;;;;;5051101;28;20579;-71
2021/05/24 11:07:44;;;;;;;4.70;1.67;;;17.00;94.70;;;;;;5051475;28;20571;-71
2021/05/24 11:10:18;;;;;;;3.23;1.60;;;17.00;95.00;;;;;;5051500;28;20485;-70
2021/05/24 11:13:09;;;;;;;1.47;1.13;;;17.10;94.70;;;;;;5046553;28;20821;-70
2021/05/24 11:15:37;;;;;;;3.30;1.40;;;17.10;94.70;;;;;;5051043;28;20948;-70
2021/05/24 11:18:05;;;;;;;1.43;1.33;;;17.10;94.80;;;;;;5050843;28;20416;-71
2021/05/24 11:20:44;;;;;;;4.60;1.30;;;17.00;94.50;;;;;;5050761;28;20401;-70
2021/05/24 11:28:16;;;;;;;1.70;1.37;;;17.10;95.00;;;;;;5062610;28;20432;-70
2021/05/24 11:30:42;;;;;;;3.03;1.20;;;17.20;95.10;;;;;;5064909;28;20945;-71
2021/05/24 11:33:36;;;;;;;2.27;1.70;;;17.20;95.30;;;;;;5055043;28;20436;-71
2021/05/24 11:36:03;;;;;;;3.60;1.40;;;17.30;95.50;;;;;;5049782;28;20429;-73
2021/05/24 11:38:29;;;;;;;2.30;1.30;;;17.20;95.80;;;;;;5021085;28;20483;-72
2021/05/24 11:41:16;;;;;;;2.13;1.27;;;17.20;96.70;;;;;;5037465;28;20428;-73
2021/05/24 11:43:43;;;;;;;2.07;1.13;;;17.20;96.70;;;;;;5044028;28;20228;-72
2021/05/24 11:46:12;;;;;;;1.73;1.63;;;17.20;96.80;;;;;;5048205;28;20441;-72
2021/05/24 11:48:40;;;;;;;1.83;1.40;;;17.10;96.60;;;;;;5046909;28;20439;-73
2021/05/24 11:51:08;;;;;;;1.70;1.40;;;17.00;96.90;;;;;;5048026;28;20421;-73
2021/05/24 11:53:33;;;;;;;2.13;1.23;;;17.00;97.50;;;;;;5048064;28;20455;-72
2021/05/24 11:56:12;;;;;;;1.70;1.40;;;16.90;97.70;;;;;;5054316;28;20448;-73
2021/05/24 11:59:01;;;;;;;1.60;1.40;;;16.80;98.00;;;;;;5048014;28;20452;-73
2021/05/24 12:01:28;;;;;;;3.60;1.60;;;16.70;98.30;;;;;;5048537;28;20154;-72
2021/05/24 12:03:54;;;;;;;3.23;2.10;;;16.70;98.10;;;;;;5049052;28;20514;-72
2021/05/24 12:06:20;;;;;;;2.20;1.40;;;16.70;98.40;;;;;;5049247;28;20402;-72
2021/05/24 12:08:47;;;;;;;1.80;1.60;;;16.40;99.30;;;;;;5042972;28;20212;-71
2021/05/24 12:11:14;;;;;;;2.60;1.37;;;16.40;99.70;;;;;;5050134;28;20470;-73
2021/05/24 12:14:04;;;;;;;2.53;1.40;;;16.20;99.90;;;;;;5050690;28;20424;-72
2021/05/24 12:16:31;;;;;;;1.40;1.30;;;16.20;99.90;;;;;;5073416;28;20424;-72
2021/05/24 12:19:00;;;;;;;2.70;1.73;;;16.30;99.90;;;;;;5073704;28;20452;-73
2021/05/24 12:21:40;;;;;;;1.20;1.10;;;16.30;99.90;;;;;;5074063;28;21017;-73
2021/05/24 12:24:09;;;;;;;1.70;1.20;;;16.20;99.90;;;;;;5070838;28;20427;-73
2021/05/24 12:26:36;;;;;;;1.00;1.00;;;16.10;99.90;;;;;;5072387;28;20420;-73
2021/05/24 12:29:03;;;;;;;1.37;1.27;;;16.10;99.90;;;;;;5074475;28;20412;-74
2021/05/24 12:31:30;;;;;;;2.63;1.17;;;16.10;99.90;;;;;;5091433;28;20420;-73
2021/05/24 12:33:57;;;;;;;2.73;1.17;;;16.10;99.90;;;;;;5059653;28;20558;-71
2021/05/24 12:36:31;;;;;;;1.27;0.90;;;16.10;99.90;;;;;;5038003;28;20445;-73
2021/05/24 12:38:59;;;;;;;1.13;0.97;;;16.00;99.90;;;;;;5039911;28;20613;-72
2021/05/24 12:41:30;;;;;;;1.70;1.03;;;15.80;99.90;;;;;;5048706;28;21382;-72
2021/05/24 12:43:58;;;;;;;1.00;0.85;;;15.80;99.90;;;;;;5049415;28;20867;-72
2021/05/24 12:46:24;;;;;;;1.10;0.80;;;15.80;99.90;;;;;;5051157;28;20225;-72
2021/05/24 12:48:52;;;;;;;0.80;0.80;;;15.80;99.90;;;;;;5049973;28;20551;-72
2021/05/24 12:51:23;;;;;;;1.33;1.00;;;15.80;99.90;;;;;;5050495;28;20170;-72
2021/05/24 12:54:04;;;;;;;1.43;1.03;;;15.80;99.90;;;;;;5035736;28;20464;-72
2021/05/24 12:56:41;;;;;;;1.37;1.27;;;15.90;99.90;;;;;;5048902;28;20432;-72